Time;durP1;ratioP1;P1;durP2;ratioP2;P2;SDS_P1;SDS_P2;PMS_P1;PMS_P2;Temp;Humidity;BMP_temperature;BMP_pressure;BME280_temperature;BME280_humidity;BME280_pressure;Samples;Min_cycle;Max_cycle;Signal;HPM_P1;HPM_P2
2022/03/10 00:02:13;;;;;;;;;28.00;25.33;;;;;14.08;40.73;101639.50;5060343;27;45401;-89
2022/03/10 00:04:38;;;;;;;;;30.00;27.00;;;;;14.27;40.63;101681.59;5015587;27;45488;-89
2022/03/10 00:07:05;;;;;;;;;27.00;24.00;;;;;14.29;40.59;101680.56;5015649;28;45937;-89
2022/03/10 00:09:32;;;;;;;;;24.67;21.67;;;;;14.27;40.70;101685.13;5102792;27;46130;-89
2022/03/10 00:11:58;;;;;;;;;25.00;22.00;;;;;14.26;40.59;101685.22;5035668;28;45282;-89
2022/03/10 00:14:23;;;;;;;;;28.33;22.33;;;;;14.23;40.91;101682.66;5035363;28;45518;-89
2022/03/10 00:16:50;;;;;;;;;34.00;27.67;;;;;14.19;40.85;101687.28;5017293;28;46038;-89
2022/03/10 00:19:16;;;;;;;;;26.33;22.67;;;;;14.19;40.82;101681.94;5035488;28;45257;-89
2022/03/10 00:21:45;;;;;;;;;26.00;24.00;;;;;14.17;40.76;101678.44;5035349;28;45403;-89
2022/03/10 00:24:12;;;;;;;;;24.67;23.33;;;;;14.17;41.09;101682.94;5035661;28;45216;-90
2022/03/10 00:26:38;;;;;;;;;31.00;27.00;;;;;14.14;40.89;101675.88;5035264;28;46477;-89
2022/03/10 00:29:04;;;;;;;;;27.00;25.00;;;;;13.97;40.60;101643.59;5027827;28;45528;-89
2022/03/10 00:31:30;;;;;;;;;25.67;22.33;;;;;13.89;40.69;101642.09;5017581;28;45238;-87
2022/03/10 00:33:55;;;;;;;;;27.00;25.33;;;;;14.07;40.99;101683.34;5024308;28;45283;-90
2022/03/10 00:36:24;;;;;;;;;28.00;25.33;;;;;14.00;40.82;101670.25;5027870;28;45451;-90
2022/03/10 00:38:51;;;;;;;;;20.67;20.00;;;;;14.06;40.85;101692.31;5022068;28;45383;-90
2022/03/10 00:41:17;;;;;;;;;26.00;22.00;;;;;13.95;41.14;101670.44;5040074;27;45459;-90
2022/03/10 00:43:43;;;;;;;;;24.00;24.00;;;;;13.89;40.77;101670.72;5017419;28;45424;-89
2022/03/10 00:46:10;;;;;;;;;29.33;23.33;;;;;14.02;40.92;101690.69;5027502;28;45352;-90
2022/03/10 00:48:36;;;;;;;;;23.67;23.67;;;;;13.87;41.04;101676.13;5019175;28;45415;-90
2022/03/10 00:51:02;;;;;;;;;29.00;23.67;;;;;13.98;40.91;101683.72;5096079;27;45387;-89
2022/03/10 00:53:28;;;;;;;;;26.33;23.67;;;;;13.91;41.07;101677.75;5026389;28;45482;-90
2022/03/10 00:55:53;;;;;;;;;28.00;25.00;;;;;13.93;41.24;101689.28;5019895;28;45459;-89
2022/03/10 00:58:18;;;;;;;;;29.33;23.67;;;;;13.91;41.17;101690.28;5030629;28;45476;-89
2022/03/10 01:00:44;;;;;;;;;23.67;23.67;;;;;13.91;41.29;101688.47;5019986;28;45417;-90
2022/03/10 01:03:09;;;;;;;;;23.67;23.00;;;;;13.65;41.43;101644.03;5059744;27;45409;-90
2022/03/10 01:05:35;;;;;;;;;27.33;25.67;;;;;13.30;41.38;101587.47;5022233;28;54569;-89
2022/03/10 01:08:00;;;;;;;;;25.33;22.33;;;;;13.67;41.52;101658.25;5030347;28;45501;-90
2022/03/10 01:10:26;;;;;;;;;27.00;23.67;;;;;13.82;41.48;101685.31;5015403;28;45519;-89
2022/03/10 01:12:52;;;;;;;;;24.33;22.33;;;;;13.66;41.52;101666.34;5015183;28;45338;-90
2022/03/10 01:15:23;;;;;;;;;25.00;25.00;;;;;13.77;41.33;101690.00;5022601;28;45435;-90
2022/03/10 01:17:49;;;;;;;;;28.00;22.00;;;;;13.57;41.26;101661.34;5028252;28;45405;-90
2022/03/10 01:20:14;;;;;;;;;27.00;20.67;;;;;13.53;41.50;101660.59;5017495;28;45385;-89
2022/03/10 01:22:40;;;;;;;;;27.67;22.33;;;;;13.57;41.26;101674.75;5034134;28;45263;-90
2022/03/10 01:25:07;;;;;;;;;25.33;22.33;;;;;13.69;41.27;101688.50;5026811;28;46283;-90
2022/03/10 01:27:33;;;;;;;;;25.33;24.67;;;;;13.37;41.22;101636.28;5091116;27;45395;-90
2022/03/10 01:29:58;;;;;;;;;25.67;20.67;;;;;13.51;41.47;101659.81;5022272;28;45376;-89
2022/03/10 01:32:25;;;;;;;;;23.33;23.33;;;;;13.33;41.53;101637.34;5023805;28;45584;-89
2022/03/10 01:34:50;;;;;;;;;21.67;19.33;;;;;13.50;41.67;101666.94;5025731;28;46355;-90
2022/03/10 01:37:15;;;;;;;;;23.67;22.00;;;;;13.35;41.32;101634.59;5019396;28;45425;-89
2022/03/10 01:39:41;;;;;;;;;23.00;21.33;;;;;13.61;41.28;101673.69;5030233;28;45277;-90
2022/03/10 01:42:07;;;;;;;;;29.33;22.33;;;;;13.33;41.30;101629.31;5022636;28;45477;-89
2022/03/10 01:44:33;;;;;;;;;22.33;21.33;;;;;13.51;41.36;101662.50;5022699;28;45398;-89
2022/03/10 01:46:59;;;;;;;;;24.00;24.00;;;;;13.48;41.51;101660.78;5015668;28;46097;-90
2022/03/10 01:49:24;;;;;;;;;21.67;20.00;;;;;13.50;41.38;101672.31;5023953;28;45757;-88
2022/03/10 01:51:50;;;;;;;;;22.00;22.00;;;;;13.44;41.31;101664.53;5023742;28;45447;-89
2022/03/10 01:54:16;;;;;;;;;25.33;24.00;;;;;13.41;41.39;101661.97;5021552;28;46172;-89
2022/03/10 01:56:41;;;;;;;;;25.67;23.00;;;;;13.40;41.43;101657.56;5025096;28;45352;-90
2022/03/10 01:59:07;;;;;;;;;22.33;21.67;;;;;13.34;41.39;101656.94;5020028;28;45336;-89
2022/03/10 02:01:32;;;;;;;;;23.67;21.33;;;;;13.14;41.41;101625.59;5029359;27;45385;-89
2022/03/10 02:03:58;;;;;;;;;32.33;21.00;;;;;13.43;41.31;101665.47;5051210;27;46501;-90
2022/03/10 02:06:24;;;;;;;;;29.33;23.33;;;;;12.96;41.30;101592.41;5024167;28;45238;-89
2022/03/10 02:11:36;;;;;;;;;29.33;21.33;;;;;13.40;41.58;101672.78;5024492;28;45373;-89
2022/03/10 02:17:19;;;;;;;;;23.67;21.00;;;;;13.02;41.56;101610.91;5024865;28;45410;-89
2022/03/10 02:19:31;;;;;;;;;27.00;22.33;;;;;13.33;41.32;101676.63;5020308;28;45476;-89
2022/03/10 02:21:57;;;;;;;;;29.67;28.33;;;;;13.11;41.77;101642.66;5025255;28;45324;-89
2022/03/10 02:24:24;;;;;;;;;23.67;22.67;;;;;13.30;41.65;101678.50;5003760;28;47213;-89
2022/03/10 02:26:50;;;;;;;;;25.00;23.33;;;;;13.02;41.41;101630.50;5031944;28;45652;-89
2022/03/10 02:29:16;;;;;;;;;26.00;21.67;;;;;13.27;41.41;101678.63;5024526;28;45390;-89
2022/03/10 02:31:41;;;;;;;;;26.00;23.67;;;;;13.08;41.46;101648.97;5029516;28;45600;-89
2022/03/10 02:34:09;;;;;;;;;24.33;22.67;;;;;12.96;41.41;101632.56;5024415;28;46022;-89
2022/03/10 02:36:34;;;;;;;;;24.33;22.67;;;;;12.79;41.46;101618.03;5024644;28;45345;-89
2022/03/10 02:39:00;;;;;;;;;24.00;24.00;;;;;13.05;41.38;101661.63;5028079;28;45238;-89
2022/03/10 02:41:25;;;;;;;;;29.33;26.00;;;;;13.15;41.37;101679.06;5029782;28;45386;-89
2022/03/10 02:43:51;;;;;;;;;23.67;22.67;;;;;12.94;41.59;101656.69;5023270;28;47281;-89
2022/03/10 02:46:16;;;;;;;;;23.33;22.00;;;;;12.99;41.91;101668.06;5035783;28;46865;-89
2022/03/10 02:48:41;;;;;;;;;26.00;22.33;;;;;12.98;41.89;101668.16;5019633;28;45302;-89
2022/03/10 02:51:06;;;;;;;;;25.00;23.67;;;;;12.88;41.97;101659.63;5032191;28;45343;-89
2022/03/10 02:53:32;;;;;;;;;26.00;24.33;;;;;12.93;41.88;101668.31;5024152;28;45327;-89
2022/03/10 02:55:57;;;;;;;;;25.00;21.67;;;;;12.97;41.77;101677.09;5024683;28;45292;-88
2022/03/10 02:58:22;;;;;;;;;27.00;21.67;;;;;12.65;42.08;101625.72;5031665;28;45305;-89
2022/03/10 03:00:49;;;;;;;;;28.00;24.33;;;;;12.64;41.83;101630.19;5023597;28;45267;-89
2022/03/10 03:03:14;;;;;;;;;27.00;24.00;;;;;12.93;42.04;101687.06;5077371;27;46196;-89
2022/03/10 03:05:40;;;;;;;;;27.33;25.67;;;;;12.60;42.12;101636.59;5026809;28;45367;-89
2022/03/10 03:08:06;;;;;;;;;29.67;26.00;;;;;12.83;42.19;101693.69;5023735;28;45323;-89
2022/03/10 03:10:36;;;;;;;;;26.00;24.67;;;;;12.85;42.20;101698.06;5032633;28;45392;-89
2022/03/10 03:13:02;;;;;;;;;26.67;23.00;;;;;12.77;42.29;101694.78;5032752;28;46214;-89
2022/03/10 03:15:28;;;;;;;;;29.00;27.67;;;;;12.62;42.03;101666.81;5019586;28;45445;-90
2022/03/10 03:17:53;;;;;;;;;27.33;26.33;;;;;12.80;41.84;101700.00;5035225;28;45858;-89
2022/03/10 03:20:18;;;;;;;;;27.67;23.67;;;;;12.79;42.07;101705.44;5024451;28;45312;-88
2022/03/10 03:22:44;;;;;;;;;30.00;24.33;;;;;12.55;41.74;101673.34;5034484;28;47966;-89
2022/03/10 03:25:17;;;;;;;;;23.67;22.67;;;;;12.59;41.85;101674.06;5021259;28;45675;-88
2022/03/10 03:27:42;;;;;;;;;26.67;23.67;;;;;12.77;41.92;101709.97;5024735;28;45473;-89
2022/03/10 03:30:08;;;;;;;;;28.00;25.33;;;;;12.70;41.84;101703.97;5033124;28;45507;-89
2022/03/10 03:32:34;;;;;;;;;26.33;22.67;;;;;12.66;41.87;101700.53;5020149;28;46544;-89
2022/03/10 03:34:59;;;;;;;;;25.00;22.33;;;;;12.62;41.93;101704.28;5031177;28;45852;-89
2022/03/10 03:37:25;;;;;;;;;26.67;23.67;;;;;12.71;41.99;101713.72;5022054;28;45420;-88
2022/03/10 03:39:50;;;;;;;;;24.33;23.00;;;;;12.55;41.60;101697.41;5035637;28;45547;-89
2022/03/10 03:42:15;;;;;;;;;27.67;26.33;;;;;12.54;42.04;101684.94;5035233;28;45498;-89
2022/03/10 03:44:41;;;;;;;;;27.67;27.67;;;;;12.70;41.96;101725.38;5026752;28;45398;-88
2022/03/10 03:47:06;;;;;;;;;22.67;21.67;;;;;12.70;42.00;101714.69;5015932;28;45716;-89
2022/03/10 03:49:31;;;;;;;;;23.67;22.67;;;;;12.67;42.06;101717.47;5016279;28;45226;-89
2022/03/10 03:51:57;;;;;;;;;27.33;26.33;;;;;12.59;41.99;101706.16;5022838;28;46419;-89
2022/03/10 03:54:24;;;;;;;;;25.67;24.00;;;;;12.52;42.24;101700.16;5020190;28;45813;-89
2022/03/10 03:56:49;;;;;;;;;27.67;23.67;;;;;12.64;42.09;101723.81;5014853;28;45370;-88
2022/03/10 03:59:15;;;;;;;;;27.00;22.67;;;;;12.46;42.00;101695.94;5035970;28;45190;-89
2022/03/10 04:01:40;;;;;;;;;23.67;21.00;;;;;12.25;42.10;101661.97;5035070;28;45982;-89
2022/03/10 04:04:05;;;;;;;;;28.00;24.33;;;;;12.51;42.23;101717.16;5016270;28;45222;-89
2022/03/10 04:06:31;;;;;;;;;29.67;24.67;;;;;12.52;42.49;101718.03;5016010;28;45290;-89
2022/03/10 04:08:56;;;;;;;;;28.67;26.33;;;;;12.35;42.33;101697.25;5029789;28;45509;-89
2022/03/10 04:11:21;;;;;;;;;25.67;24.33;;;;;12.41;42.35;101708.59;5035625;28;46467;-89
2022/03/10 04:13:47;;;;;;;;;27.67;24.00;;;;;12.48;42.66;101722.63;5035870;28;45475;-88
2022/03/10 04:16:12;;;;;;;;;25.00;22.33;;;;;12.12;42.41;101664.19;5035001;28;45463;-88
2022/03/10 04:18:37;;;;;;;;;26.33;22.67;;;;;12.44;42.81;101724.53;5028005;28;45528;-89
2022/03/10 04:21:03;;;;;;;;;24.00;24.00;;;;;12.16;42.71;101676.50;5032139;28;45331;-89
2022/03/10 04:23:28;;;;;;;;;24.00;20.33;;;;;12.36;42.62;101718.59;5026878;28;45435;-89
2022/03/10 04:25:53;;;;;;;;;27.33;24.33;;;;;12.35;42.40;101716.81;5026040;28;45483;-88
2022/03/10 04:28:19;;;;;;;;;31.33;26.33;;;;;12.36;42.90;101726.59;5031299;28;45418;-89
2022/03/10 04:30:45;;;;;;;;;29.00;25.00;;;;;12.35;42.94;101732.00;5028222;28;46104;-89
2022/03/10 04:33:11;;;;;;;;;26.33;23.67;;;;;12.31;42.59;101733.03;5023336;28;45400;-89
2022/03/10 04:35:36;;;;;;;;;24.33;21.33;;;;;12.16;43.14;101713.06;5024687;28;45373;-89
2022/03/10 04:38:02;;;;;;;;;26.33;25.67;;;;;12.08;43.24;101710.66;5025787;28;45528;-89
2022/03/10 04:40:28;;;;;;;;;25.67;21.67;;;;;12.10;43.31;101707.91;5018880;28;46305;-89
2022/03/10 04:42:53;;;;;;;;;27.00;24.00;;;;;12.01;42.95;101709.09;5015577;28;45180;-88
2022/03/10 04:45:19;;;;;;;;;22.00;18.33;;;;;11.97;43.32;101705.66;5008097;28;45564;-89
2022/03/10 04:47:45;;;;;;;;;30.67;25.33;;;;;12.13;43.41;101735.44;5026217;28;45159;-89
2022/03/10 04:50:13;;;;;;;;;29.67;26.00;;;;;12.06;43.48;101724.97;5023703;28;45933;-88
2022/03/10 04:52:38;;;;;;;;;21.00;19.67;;;;;11.98;43.76;101711.88;5022987;28;45356;-88
2022/03/10 04:55:04;;;;;;;;;26.33;25.00;;;;;12.10;43.48;101730.16;5023267;28;45361;-88
2022/03/10 04:57:30;;;;;;;;;29.00;28.00;;;;;12.11;43.44;101737.28;5026542;28;45315;-88
2022/03/10 04:59:55;;;;;;;;;33.50;24.75;;;;;12.09;43.58;101733.78;5026173;28;46090;-89
2022/03/10 05:02:21;;;;;;;;;28.00;25.25;;;;;11.95;43.71;101712.88;5046032;27;45357;-89
2022/03/10 05:04:46;;;;;;;;;30.33;25.00;;;;;11.90;43.67;101706.81;5026233;28;45437;-89
2022/03/10 05:07:12;;;;;;;;;30.67;25.67;;;;;11.99;43.63;101716.31;5032168;28;45636;-89
2022/03/10 05:09:37;;;;;;;;;26.33;23.00;;;;;11.92;43.45;101712.13;5015635;28;46347;-90
2022/03/10 05:12:03;;;;;;;;;29.33;25.00;;;;;11.96;43.77;101719.06;5021444;28;45968;-89
2022/03/10 05:14:28;;;;;;;;;27.33;23.67;;;;;12.01;43.71;101720.69;5018405;28;45445;-89
2022/03/10 05:16:54;;;;;;;;;26.33;24.67;;;;;11.94;43.65;101711.13;5026577;28;45433;-89
2022/03/10 05:19:19;;;;;;;;;26.67;24.00;;;;;12.08;43.84;101723.13;5023270;28;45980;-89
2022/03/10 05:21:44;;;;;;;;;27.67;24.00;;;;;11.77;43.69;101676.91;5022733;28;45342;-89
2022/03/10 05:24:11;;;;;;;;;32.67;29.00;;;;;11.98;43.62;101718.09;5022435;28;45377;-88
2022/03/10 05:26:37;;;;;;;;;25.67;25.00;;;;;12.05;44.11;101726.78;5026235;28;45466;-89
2022/03/10 05:29:03;;;;;;;;;33.00;28.67;;;;;11.81;43.68;101688.38;5025502;28;46446;-89
2022/03/10 05:31:28;;;;;;;;;25.33;25.33;;;;;11.93;44.01;101700.50;5022079;28;45518;-89
2022/03/10 05:33:54;;;;;;;;;28.33;24.67;;;;;12.02;44.04;101726.91;5028652;28;45402;-89
2022/03/10 05:36:19;;;;;;;;;28.67;24.00;;;;;11.91;43.83;101713.03;5025218;27;45439;-89
2022/03/10 05:38:45;;;;;;;;;29.67;26.67;;;;;11.85;44.15;101714.06;5025722;28;45364;-89
2022/03/10 05:41:11;;;;;;;;;29.67;25.33;;;;;11.79;43.98;101712.47;5002316;28;45389;-89
2022/03/10 05:43:36;;;;;;;;;27.67;25.00;;;;;11.81;44.15;101704.41;5026409;27;45301;-90
2022/03/10 05:46:02;;;;;;;;;26.33;24.67;;;;;11.89;44.16;101731.75;5034536;28;45371;-89
2022/03/10 05:48:27;;;;;;;;;27.67;24.33;;;;;11.77;43.98;101705.44;5014353;28;46067;-89
2022/03/10 05:50:53;;;;;;;;;27.67;23.00;;;;;11.59;43.78;101678.44;5027768;28;61041;-88
2022/03/10 05:53:18;;;;;;;;;25.67;24.67;;;;;11.85;43.98;101730.09;5022997;28;45291;-89
2022/03/10 05:55:43;;;;;;;;;28.00;25.33;;;;;11.82;44.21;101727.50;5021838;28;45300;-89
2022/03/10 05:58:09;;;;;;;;;28.67;24.33;;;;;11.78;44.10;101737.44;5016622;28;47066;-89
2022/03/10 06:00:34;;;;;;;;;26.50;26.50;;;;;11.61;44.20;101702.38;5031658;28;45233;-89
2022/03/10 06:03:00;;;;;;;;;23.67;19.67;;;;;11.34;44.50;101656.13;5031295;28;45547;-89
2022/03/10 06:05:25;;;;;;;;;22.67;21.67;;;;;10.88;44.47;101570.41;5019644;28;45368;-86
2022/03/10 06:07:51;;;;;;;;;22.00;20.67;;;;;11.82;44.44;101732.84;5036190;28;45950;-84
2022/03/10 06:10:16;;;;;;;;;25.00;23.50;;;;;11.83;44.30;101731.94;5036358;28;45342;-85
2022/03/10 06:12:43;;;;;;;;;26.75;24.75;;;;;11.83;44.54;101734.63;5026006;28;45637;-83
2022/03/10 06:15:10;;;;;;;;;22.33;22.00;;;;;11.24;44.43;101626.19;5023562;28;45404;-83
2022/03/10 06:17:36;;;;;;;;;27.33;25.00;;;;;11.68;44.64;101697.72;5030483;28;45446;-82
2022/03/10 06:20:03;;;;;;;;;27.33;25.00;;;;;11.46;44.36;101663.72;5036705;28;45322;-85
2022/03/10 06:22:30;;;;;;;;;25.00;22.67;;;;;11.49;44.67;101668.09;5019583;28;45233;-85
2022/03/10 06:24:56;;;;;;;;;26.00;23.00;;;;;11.82;44.43;101728.41;5031910;28;45171;-85
2022/03/10 06:27:22;;;;;;;;;27.67;24.67;;;;;11.84;44.64;101737.22;5019877;28;45654;-87
2022/03/10 06:29:49;;;;;;;;;29.00;23.67;;;;;11.58;44.60;101683.81;5007159;27;45873;-86
2022/03/10 06:32:19;;;;;;;;;29.67;25.67;;;;;11.82;45.26;101719.50;5034219;27;45572;-87
2022/03/10 06:34:46;;;;;;;;;25.33;24.00;;;;;11.52;44.96;101663.53;5026305;28;45462;-81
2022/03/10 06:37:12;;;;;;;;;24.33;21.33;;;;;11.85;45.11;101743.47;5010267;28;46487;-81
2022/03/10 06:39:38;;;;;;;;;26.25;25.00;;;;;11.80;45.21;101743.63;5031145;28;45749;-88
2022/03/10 06:42:04;;;;;;;;;27.33;25.33;;;;;11.30;45.28;101659.81;5029014;28;45440;-84
2022/03/10 06:44:30;;;;;;;;;27.75;25.75;;;;;11.31;45.60;101670.44;5018702;28;45486;-87
2022/03/10 06:46:56;;;;;;;;;27.00;24.50;;;;;11.73;45.63;101742.06;5024203;27;47287;-88
2022/03/10 06:49:21;;;;;;;;;343.50;285.00;;;;;11.34;45.85;101689.00;5024665;28;45464;-85
2022/03/10 06:51:48;;;;;;;;;38.25;31.25;;;;;11.60;45.75;101748.72;5030907;28;45679;-83
2022/03/10 06:54:14;;;;;;;;;29.50;25.50;;;;;11.60;45.72;101746.91;5022497;27;45574;-83
2022/03/10 06:56:39;;;;;;;;;35.25;29.75;;;;;11.56;45.89;101726.56;5019419;28;46395;-84
2022/03/10 06:59:06;;;;;;;;;33.50;31.25;;;;;11.29;45.60;101684.75;5025394;28;45334;-84
2022/03/10 07:01:31;;;;;;;;;30.25;26.25;;;;;11.50;46.31;101734.78;5029184;28;45458;-86
2022/03/10 07:03:57;;;;;;;;;37.00;30.00;;;;;11.32;46.04;101709.53;5025284;28;45475;-85
2022/03/10 07:06:26;;;;;;;;;31.00;26.75;;;;;11.23;46.02;101693.81;5030500;27;45523;-86
2022/03/10 07:08:51;;;;;;;;;33.75;30.25;;;;;11.20;46.06;101684.09;5015883;28;45496;-85
2022/03/10 07:11:18;;;;;;;;;42.50;34.00;;;;;11.16;46.10;101682.44;5014464;28;45292;-85
2022/03/10 07:13:44;;;;;;;;;33.50;29.50;;;;;11.57;46.68;101762.16;5016600;28;45582;-86
2022/03/10 07:16:10;;;;;;;;;32.00;29.75;;;;;10.82;46.50;101626.63;5014561;28;46954;-86
2022/03/10 07:18:35;;;;;;;;;36.25;30.00;;;;;11.06;46.28;101667.66;5028293;28;45467;-85
2022/03/10 07:21:02;;;;;;;;;31.75;28.50;;;;;11.36;46.29;101726.34;5018432;28;45411;-86
2022/03/10 07:23:28;;;;;;;;;33.50;25.75;;;;;11.42;46.56;101760.84;5018455;28;45663;-86
2022/03/10 07:25:53;;;;;;;;;33.75;27.75;;;;;11.55;46.42;101764.00;5025048;28;46364;-90
2022/03/10 07:28:18;;;;;;;;;33.75;30.00;;;;;11.50;46.17;101731.25;5024573;28;45409;-88
2022/03/10 07:30:44;;;;;;;;;27.75;24.75;;;;;11.88;46.10;101763.88;5029237;28;45390;-90
2022/03/10 07:33:09;;;;;;;;;30.50;29.50;;;;;11.45;45.80;101682.44;5017587;28;45653;-90
2022/03/10 07:35:34;;;;;;;;;28.25;24.75;;;;;11.83;45.87;101739.97;5000061;28;47969;-89
2022/03/10 07:38:00;;;;;;;;;30.50;29.75;;;;;11.65;46.06;101701.38;5030468;28;46282;-91
2022/03/10 07:40:26;;;;;;;;;34.50;30.00;;;;;12.11;45.97;101766.66;5029634;28;45406;-89
2022/03/10 07:42:52;;;;;;;;;35.00;31.00;;;;;12.17;45.55;101766.44;5017198;28;45418;-92
2022/03/10 07:45:17;;;;;;;;;30.25;27.50;;;;;12.08;45.99;101750.75;5017139;28;47269;-90
2022/03/10 07:47:43;;;;;;;;;30.75;28.25;;;;;12.31;46.04;101771.31;5016812;27;45717;-91
2022/03/10 07:50:09;;;;;;;;;38.75;31.50;;;;;11.83;45.40;101683.88;5006833;28;45325;-91
2022/03/10 07:52:35;;;;;;;;;29.25;26.50;;;;;12.46;45.40;101767.25;5029642;28;45425;-89
2022/03/10 07:55:00;;;;;;;;;26.25;26.25;;;;;12.51;45.32;101769.78;5031609;28;45419;-84
2022/03/10 07:57:26;;;;;;;;;28.75;26.25;;;;;12.56;45.34;101771.34;5025905;28;45327;-84
2022/03/10 07:59:52;;;;;;;;;29.25;27.25;;;;;12.44;45.05;101734.34;5026843;28;45485;-84
2022/03/10 08:02:17;;;;;;;;;26.33;26.33;;;;;12.53;44.77;101766.09;5024782;28;45471;-84
2022/03/10 08:04:43;;;;;;;;;26.00;26.00;;;;;12.34;45.17;101728.47;5027332;28;46403;-84
2022/03/10 08:07:08;;;;;;;;;31.33;26.33;;;;;12.57;45.19;101762.41;5026389;28;45510;-84
2022/03/10 08:09:34;;;;;;;;;33.33;27.67;;;;;12.57;45.10;101756.16;5015225;28;45412;-82
2022/03/10 08:12:00;;;;;;;;;30.00;28.33;;;;;12.75;45.09;101773.34;5022921;28;45470;-82
2022/03/10 08:14:25;;;;;;;;;32.67;27.67;;;;;12.59;45.05;101740.94;5022071;27;46444;-90
2022/03/10 08:16:50;;;;;;;;;61.50;49.25;;;;;12.85;44.80;101772.97;5023923;28;45449;-86
2022/03/10 08:19:16;;;;;;;;;22.67;22.67;;;;;13.33;44.11;101765.84;5024919;28;45419;-85
2022/03/10 08:21:42;;;;;;;;;32.33;26.33;;;;;13.26;43.40;101732.19;5019968;28;45490;-87
2022/03/10 08:24:07;;;;;;;;;23.67;21.33;;;;;13.39;43.86;101757.59;5030648;28;45922;-86
2022/03/10 08:26:32;;;;;;;;;32.67;29.00;;;;;13.42;43.97;101752.09;5033707;28;45417;-85
2022/03/10 08:28:58;;;;;;;;;27.33;25.67;;;;;13.65;43.36;101777.09;5022366;28;45817;-86
2022/03/10 08:31:23;;;;;;;;;28.00;27.00;;;;;13.66;43.53;101776.16;5038584;27;45523;-87
2022/03/10 08:33:49;;;;;;;;;35.00;28.00;;;;;13.73;43.51;101775.84;5029184;28;45487;-88
2022/03/10 08:36:15;;;;;;;;;26.67;21.67;;;;;13.67;43.33;101767.19;5022271;28;45279;-87
2022/03/10 08:38:40;;;;;;;;;33.33;26.67;;;;;13.81;43.40;101778.22;5027736;28;45270;-89
2022/03/10 08:41:06;;;;;;;;;23.67;21.67;;;;;13.85;43.37;101773.63;5006095;28;45524;-87
2022/03/10 08:43:32;;;;;;;;;26.33;22.33;;;;;13.91;43.26;101763.53;5018281;28;45336;-85
2022/03/10 08:45:58;;;;;;;;;27.67;23.00;;;;;13.93;43.05;101766.16;5027752;28;45404;-86
2022/03/10 08:48:24;;;;;;;;;29.67;24.67;;;;;13.90;43.24;101748.34;5021858;27;45776;-86
2022/03/10 08:50:49;;;;;;;;;26.00;23.33;;;;;13.89;42.93;101735.91;5026708;28;45521;-86
2022/03/10 08:53:15;;;;;;;;;23.67;19.67;;;;;13.98;42.69;101745.38;5011669;28;46113;-86
2022/03/10 08:55:40;;;;;;;;;24.00;22.33;;;;;14.10;42.82;101750.22;5021568;27;45491;-86
2022/03/10 08:58:06;;;;;;;;;22.33;21.67;;;;;14.11;42.78;101735.00;5025386;28;45320;-87
2022/03/10 09:00:32;;;;;;;;;23.00;19.33;;;;;14.12;42.54;101731.41;5026162;28;45468;-87
2022/03/10 09:02:57;;;;;;;;;18.00;16.67;;;;;14.36;42.50;101753.59;5025664;28;45379;-87
2022/03/10 09:05:23;;;;;;;;;23.67;23.67;;;;;14.53;42.40;101750.16;5012890;28;45367;-86
2022/03/10 09:07:48;;;;;;;;;25.00;22.67;;;;;14.79;41.89;101754.41;5026214;28;45373;-87
2022/03/10 09:10:13;;;;;;;;;27.00;20.33;;;;;14.74;41.52;101722.41;5013226;27;45467;-87
2022/03/10 09:12:39;;;;;;;;;23.33;20.67;;;;;14.74;41.30;101716.16;5020580;28;46260;-87
2022/03/10 09:15:06;;;;;;;;;19.00;19.00;;;;;15.08;40.99;101733.41;5022501;28;45246;-88
2022/03/10 09:17:31;;;;;;;;;20.67;19.00;;;;;15.39;40.72;101728.31;5026584;27;45261;-87
2022/03/10 09:19:57;;;;;;;;;19.67;18.00;;;;;15.72;40.03;101724.09;5022261;28;45714;-87
2022/03/10 09:22:25;;;;;;;;;20.33;17.67;;;;;16.06;39.33;101736.72;5020451;28;46650;-87
2022/03/10 09:24:51;;;;;;;;;21.67;19.00;;;;;16.27;39.43;101732.03;5026116;28;45425;-86
2022/03/10 09:27:16;;;;;;;;;31.67;28.33;;;;;16.70;38.36;101740.56;5023503;28;45579;-86
2022/03/10 09:29:42;;;;;;;;;20.67;18.00;;;;;17.11;37.84;101742.84;5021467;28;45404;-87
2022/03/10 09:32:08;;;;;;;;;24.33;19.67;;;;;17.57;37.31;101742.97;5021875;28;45352;-86
2022/03/10 09:34:33;;;;;;;;;17.33;17.33;;;;;17.82;36.75;101699.31;5026074;28;45861;-86
2022/03/10 09:36:58;;;;;;;;;24.33;19.00;;;;;18.60;35.94;101728.78;5022652;28;45358;-86
2022/03/10 09:39:24;;;;;;;;;21.33;20.33;;;;;19.43;34.90;101726.25;5023368;28;45598;-85
2022/03/10 09:41:49;;;;;;;;;21.00;19.67;;;;;20.13;33.50;101695.47;5017659;28;45364;-86
2022/03/10 09:44:20;;;;;;;;;20.67;17.67;;;;;21.20;32.69;101724.97;5025935;28;45445;-86
2022/03/10 09:46:47;;;;;;;;;17.67;17.67;;;;;21.97;31.04;101727.44;5026296;28;45375;-86
2022/03/10 09:49:13;;;;;;;;;19.00;16.67;;;;;22.39;29.71;101706.13;5025956;28;45506;-86
2022/03/10 09:51:39;;;;;;;;;17.00;16.00;;;;;22.65;29.87;101694.03;5022684;28;45847;-85
2022/03/10 09:54:04;;;;;;;;;18.00;15.00;;;;;22.99;29.54;101712.25;5026514;28;45337;-85
2022/03/10 09:56:31;;;;;;;;;11.33;10.67;;;;;23.49;28.61;101707.25;5029626;28;45490;-86
2022/03/10 09:58:56;;;;;;;;;21.00;20.33;;;;;24.39;27.74;101710.44;5026023;28;45537;-85
2022/03/10 10:01:22;;;;;;;;;23.00;19.67;;;;;25.42;26.71;101697.72;5021240;28;46141;-83
2022/03/10 10:03:47;;;;;;;;;13.67;13.00;;;;;26.75;25.14;101708.91;5023830;28;45353;-84
2022/03/10 10:06:12;;;;;;;;;16.00;15.00;;;;;27.92;23.56;101683.63;5027421;28;45503;-83
2022/03/10 10:08:41;;;;;;;;;20.00;15.00;;;;;29.22;22.04;101700.09;5021686;28;45761;-82
2022/03/10 10:11:07;;;;;;;;;17.33;15.00;;;;;30.33;20.96;101689.81;5022678;28;45440;-84
2022/03/10 10:13:39;;;;;;;;;17.33;16.33;;;;;31.34;20.40;101689.97;5024969;28;45394;-83
2022/03/10 10:16:07;;;;;;;;;18.33;16.67;;;;;32.13;19.09;101659.47;5014992;28;45386;-83
2022/03/10 10:18:35;;;;;;;;;18.67;17.67;;;;;33.27;18.62;101688.75;5028852;28;45437;-84
2022/03/10 10:21:01;;;;;;;;;17.00;14.33;;;;;33.89;16.58;101690.09;5032730;28;45378;-83
2022/03/10 10:23:30;;;;;;;;;14.67;13.33;;;;;34.38;17.25;101679.03;5019347;28;45320;-84
2022/03/10 10:25:59;;;;;;;;;17.33;14.67;;;;;34.91;17.62;101658.28;5023112;28;45542;-86
2022/03/10 10:28:41;;;;;;;;;14.67;14.67;;;;;35.47;16.24;101669.16;5024088;28;46265;-85
2022/03/10 10:31:15;;;;;;;;;12.33;12.33;;;;;36.27;15.81;101663.72;5031021;27;46290;-85
2022/03/10 10:33:54;;;;;;;;;13.00;13.00;;;;;36.97;14.79;101648.19;5023102;28;45512;-85
2022/03/10 10:36:24;;;;;;;;;15.33;13.33;;;;;37.61;14.81;101665.00;5026364;28;45446;-86
2022/03/10 10:38:52;;;;;;;;;13.00;13.00;;;;;38.04;13.90;101664.25;5021210;28;45414;-85
2022/03/10 10:41:30;;;;;;;;;13.67;12.33;;;;;38.51;14.48;101661.88;5042696;27;47420;-85
2022/03/10 10:44:01;;;;;;;;;18.00;14.33;;;;;38.59;14.16;101625.38;5014454;28;45532;-85
2022/03/10 10:46:41;;;;;;;;;11.33;11.33;;;;;39.19;14.50;101655.28;5004779;28;45739;-85
2022/03/10 10:49:06;;;;;;;;;11.33;11.33;;;;;39.68;12.82;101647.72;5028650;28;45734;-85
2022/03/10 10:51:38;;;;;;;;;13.00;11.33;;;;;39.92;12.94;101641.34;5006741;28;46709;-84
2022/03/10 10:54:07;;;;;;;;;9.00;8.67;;;;;40.22;12.94;101644.03;5025502;28;45487;-85
2022/03/10 10:56:34;;;;;;;;;12.67;11.67;;;;;40.06;12.92;101606.50;5023437;28;45533;-84
2022/03/10 10:59:02;;;;;;;;;6.33;5.00;;;;;40.24;11.96;101622.28;5025543;28;45548;-85
2022/03/10 11:01:38;;;;;;;;;11.33;11.33;;;;;39.76;12.82;101599.06;5023320;28;46159;-85
2022/03/10 11:04:05;;;;;;;;;8.00;8.00;;;;;39.79;12.98;101611.69;5021918;28;45677;-85
2022/03/10 11:06:34;;;;;;;;;9.67;8.67;;;;;39.66;13.45;101616.41;5026179;28;45407;-86
2022/03/10 11:08:59;;;;;;;;;11.33;9.33;;;;;39.35;13.40;101620.28;5055880;27;45627;-85
2022/03/10 11:11:26;;;;;;;;;8.00;8.00;;;;;39.02;13.46;101621.63;5039827;28;45407;-85